Pagina principală
METAR-TAF:

METAR-TAF

Aeroporturi :

Biloxi, Mississippi, Statele Unite ale Americii

Latitudine: 30-25N, longitudine: 088-55W, elevație: 10 m

Observații meteo curente

Raportul a fost făcut în urmă cu 19 de minute, la 20:55 UTC
Vânt 8 kt de la Sud/Sud-vest
Temperatură 32°C
Umiditate 52%
Presiune 1015 hPa
Vizibilitate: 16.1 km
Cer senin

METAR: KBIX 222055Z AUTO 20008KT 10SM CLR 32/21 A2998 RMK AO2 SLP155 T03200206 57015

Ora: 16:14 (21:14 UTC)

Prognoză

Raportul a fost făcut în urmă cu 3 ore și 14 de minute, la 18:00 UTC
Prognoză valabilă de la 22 ora 13 UTC la 23 ora 19 UTC
Vânt 6 kt din direcții variabile
Vizibilitate: 2410 m
Cer senin

TAF: KBIX 221800Z 2213/2319 VRB06KT 9999 SKC QNH2995INS TX35/2317Z TN25/2308Z LAST NO AMDS AFT 2213 NEXT 2410

Observații și prognoze meteo pentru peste 4.000 de aeroporturi (rapoarte METAR și TAF).

Stațiile disponibile sunt reprezentate pe hartă prin puncte galbene și roșii.

Țineți indicatorul mouse-ului pe punctul dorit pentru a vedea denumirea stației.

Apoi, faceți clic pentru a vedea observațiile și prognozele meteorologice.

Pentru a schimba harta: Pentru mărire, faceți clic pe butoanele verzi cu cruce neagră; pentru micșorare, pe butonul verde cu o liniuță; pentru hărți învecinate, pe săgețile verzi.


METAR-TAF: